createdAt,value
2018-09-05T00:00:43.649Z,14.11
2018-09-05T00:03:12.195Z,14.12
2018-09-05T00:05:40.761Z,14.13
2018-09-05T00:08:10.303Z,14.12
2018-09-05T00:10:38.825Z,14.16
2018-09-05T00:13:07.388Z,14.07
2018-09-05T00:15:35.929Z,14.04
2018-09-05T00:18:04.463Z,14.04
2018-09-05T00:20:33.006Z,14.02
2018-09-05T00:23:01.549Z,14.00
2018-09-05T00:25:30.086Z,13.97
2018-09-05T00:27:58.620Z,13.95
2018-09-05T00:30:27.159Z,13.92
2018-09-05T00:32:55.719Z,13.90
2018-09-05T00:35:24.228Z,13.86
2018-09-05T00:37:52.765Z,13.85
2018-09-05T00:40:21.371Z,13.83
2018-09-05T00:42:49.913Z,13.76
2018-09-05T00:45:18.470Z,13.56
2018-09-05T00:47:47.008Z,13.47
2018-09-05T00:50:15.533Z,13.58
2018-09-05T00:52:44.068Z,13.53
2018-09-05T00:55:13.580Z,13.58
2018-09-05T00:57:42.104Z,13.59
2018-09-05T01:00:10.720Z,13.57
2018-09-05T01:02:39.236Z,13.55
2018-09-05T01:05:07.852Z,13.53
2018-09-05T01:07:36.506Z,13.49
2018-09-05T01:10:05.073Z,13.45
2018-09-05T01:12:34.619Z,13.40
2018-09-05T01:15:04.134Z,13.37
2018-09-05T01:17:32.667Z,13.36
2018-09-05T01:20:03.141Z,13.34
2018-09-05T01:22:31.664Z,13.28
2018-09-05T01:25:00.212Z,13.23
2018-09-05T01:27:28.755Z,13.18
2018-09-05T01:29:57.292Z,13.16
2018-09-05T01:32:25.839Z,13.12
2018-09-05T01:34:54.364Z,13.10
2018-09-05T01:37:22.919Z,13.09
2018-09-05T01:39:51.468Z,13.05
2018-09-05T01:42:20.944Z,13.02
2018-09-05T01:44:49.486Z,12.98
2018-09-05T01:47:18.022Z,12.97
2018-09-05T01:49:46.575Z,12.93
2018-09-05T01:52:15.100Z,12.89
2018-09-05T01:54:43.640Z,12.85
2018-09-05T01:57:12.211Z,12.84
2018-09-05T01:59:41.693Z,12.82
2018-09-05T02:02:10.238Z,12.80
2018-09-05T02:04:38.764Z,12.81
2018-09-05T02:07:07.316Z,12.82
2018-09-05T02:09:35.847Z,12.85
2018-09-05T02:14:09.467Z,12.84
2018-09-05T02:16:38.531Z,12.84
2018-09-05T02:19:07.863Z,12.81
2018-09-05T02:24:12.640Z,12.82
2018-09-05T02:26:41.784Z,12.88
2018-09-05T02:29:10.853Z,12.92
2018-09-05T02:31:41.866Z,12.97
2018-09-05T02:34:10.935Z,12.91
2018-09-05T02:36:40.018Z,12.91
2018-09-05T02:39:09.081Z,12.90
2018-09-05T02:44:13.933Z,13.03
2018-09-05T02:49:18.764Z,13.00
2018-09-05T02:56:59.538Z,13.10
2018-09-05T02:59:28.590Z,13.08
2018-09-05T03:01:57.669Z,13.10
2018-09-05T03:04:26.741Z,13.16
2018-09-05T03:06:59.035Z,13.12
2018-09-05T03:09:30.107Z,13.03
2018-09-05T03:11:59.196Z,13.03
2018-09-05T03:14:28.309Z,13.09
2018-09-05T03:19:33.153Z,13.04
2018-09-05T03:22:02.226Z,12.97
2018-09-05T03:27:07.001Z,12.97
2018-09-05T03:34:47.502Z,12.95
2018-09-05T03:39:52.351Z,12.86
2018-09-05T03:42:21.433Z,12.93
2018-09-05T03:44:51.486Z,12.86
2018-09-05T03:47:20.569Z,12.80
2018-09-05T03:49:49.746Z,12.81
2018-09-05T03:52:19.777Z,12.73
2018-09-05T03:54:50.805Z,12.82
2018-09-05T03:59:57.523Z,12.69
2018-09-05T04:02:26.613Z,12.72
2018-09-05T04:04:55.754Z,12.70
2018-09-05T04:10:00.493Z,12.56
2018-09-05T04:12:29.562Z,12.67
2018-09-05T04:17:35.261Z,12.86
2018-09-05T04:22:40.117Z,12.82
2018-09-05T04:25:09.202Z,12.72
2018-09-05T04:27:38.313Z,12.57
2018-09-05T04:32:43.155Z,12.42
2018-09-05T04:35:12.247Z,12.19
2018-09-05T04:37:41.314Z,12.09
2018-09-05T04:40:11.351Z,12.08
2018-09-05T04:42:40.423Z,12.16
2018-09-05T04:45:09.542Z,12.22
2018-09-05T04:47:38.566Z,12.27
2018-09-05T04:50:07.657Z,12.38
2018-09-05T04:52:36.960Z,12.37
2018-09-05T04:55:06.015Z,12.28
2018-09-05T04:57:36.101Z,12.34
2018-09-05T05:00:05.277Z,12.42
2018-09-05T05:02:34.356Z,12.21
2018-09-05T05:05:03.469Z,12.17
2018-09-05T05:07:32.517Z,12.24
2018-09-05T05:10:01.586Z,12.16
2018-09-05T05:12:30.760Z,12.02
2018-09-05T05:14:59.769Z,12.08
2018-09-05T05:20:04.945Z,12.42
2018-09-05T05:22:34.176Z,12.37
2018-09-05T05:25:08.758Z,12.39
2018-09-05T05:27:38.773Z,12.31
2018-09-05T05:32:43.565Z,12.50
2018-09-05T05:35:12.638Z,12.56
2018-09-05T05:37:46.276Z,12.55
2018-09-05T05:40:16.435Z,12.64
2018-09-05T05:42:45.532Z,12.70
2018-09-05T05:45:15.033Z,12.73
2018-09-05T05:50:22.828Z,12.95
2018-09-05T05:52:51.943Z,13.00
2018-09-05T05:55:21.003Z,12.93
2018-09-05T05:58:06.379Z,13.09
2018-09-05T06:00:51.086Z,13.26
2018-09-05T06:03:32.608Z,13.08
2018-09-05T06:06:02.452Z,13.09
2018-09-05T06:11:07.277Z,13.31
2018-09-05T06:21:24.631Z,13.45
2018-09-05T06:23:53.752Z,13.53
2018-09-05T06:26:22.962Z,13.60
2018-09-05T06:28:52.037Z,13.65
2018-09-05T06:31:21.267Z,13.78
2018-09-05T06:33:50.313Z,13.90
2018-09-05T06:38:56.158Z,14.22
2018-09-05T06:41:25.161Z,14.37
2018-09-05T06:43:54.225Z,14.45
2018-09-05T06:46:24.273Z,14.61
2018-09-05T06:48:53.780Z,14.79
2018-09-05T06:51:22.951Z,14.87
2018-09-05T06:59:04.003Z,15.35
2018-09-05T07:01:33.104Z,15.41
2018-09-05T07:04:02.232Z,15.49
2018-09-05T07:06:31.638Z,15.55
2018-09-05T07:09:00.817Z,15.61
2018-09-05T07:11:29.881Z,15.69
2018-09-05T07:13:59.196Z,15.71
2018-09-05T07:16:30.127Z,15.84
2018-09-05T07:18:59.280Z,15.91
2018-09-05T07:21:29.305Z,15.96
2018-09-05T07:23:58.246Z,16.08
2018-09-05T07:29:03.132Z,16.42
2018-09-05T07:31:34.165Z,16.50
2018-09-05T07:34:03.226Z,16.62
2018-09-05T07:36:32.294Z,16.72
2018-09-05T07:39:03.349Z,16.83
2018-09-05T07:41:32.396Z,16.92
2018-09-05T07:44:02.493Z,17.00
2018-09-05T07:46:31.541Z,17.23
2018-09-05T07:49:00.594Z,17.33
2018-09-05T07:51:29.759Z,17.55
2018-09-05T07:53:58.825Z,17.59
2018-09-05T07:56:29.839Z,17.85
2018-09-05T07:59:02.907Z,17.90
2018-09-05T08:01:32.120Z,18.00
2018-09-05T08:04:02.126Z,18.10
2018-09-05T08:06:31.172Z,17.91
2018-09-05T08:09:01.146Z,18.08
2018-09-05T08:11:32.207Z,18.22
2018-09-05T08:14:05.079Z,18.35
2018-09-05T08:16:34.123Z,18.44
2018-09-05T08:19:03.174Z,18.70
2018-09-05T08:21:32.268Z,19.00
2018-09-05T08:24:01.332Z,19.31
2018-09-05T08:26:30.357Z,19.56
2018-09-05T08:31:35.146Z,19.72
2018-09-05T08:34:07.611Z,19.73
2018-09-05T08:36:40.508Z,19.82
2018-09-05T08:39:10.397Z,20.16
2018-09-05T08:41:44.138Z,19.94
2018-09-05T08:44:14.384Z,20.29
2018-09-05T08:46:43.356Z,20.60
2018-09-05T08:49:12.354Z,20.39
2018-09-05T08:51:42.338Z,20.78
2018-09-05T08:54:11.401Z,21.22
2018-09-05T08:56:40.441Z,21.47
2018-09-05T08:59:09.497Z,22.81
2018-09-05T09:01:38.547Z,24.89
2018-09-05T09:04:07.590Z,26.24
2018-09-05T09:06:36.657Z,26.64
2018-09-05T09:09:06.665Z,28.29
2018-09-05T09:11:35.737Z,26.42
2018-09-05T09:16:41.546Z,28.54
2018-09-05T09:19:11.565Z,28.95
2018-09-05T09:21:40.715Z,30.84
2018-09-05T09:24:10.689Z,29.73
2018-09-05T09:26:39.801Z,30.66
2018-09-05T09:29:08.890Z,31.20
2018-09-05T09:31:37.938Z,31.85
2018-09-05T09:34:07.018Z,30.15
2018-09-05T09:36:36.080Z,31.83
2018-09-05T09:39:09.058Z,34.05
2018-09-05T09:41:38.114Z,33.46
2018-09-05T09:44:07.154Z,32.13
2018-09-05T09:46:36.247Z,34.47
2018-09-05T09:49:06.280Z,30.67
2018-09-05T09:51:35.473Z,33.75
2018-09-05T09:54:04.521Z,35.05
2018-09-05T09:56:33.616Z,35.96
2018-09-05T09:59:02.669Z,36.63
2018-09-05T10:01:31.701Z,34.36
2018-09-05T10:06:36.561Z,29.41
2018-09-05T10:09:05.641Z,31.16
2018-09-05T10:11:34.694Z,28.71
2018-09-05T10:14:04.824Z,33.25
2018-09-05T10:16:38.395Z,33.77
2018-09-05T10:19:07.463Z,35.55
2018-09-05T10:21:36.619Z,34.85
2018-09-05T10:24:05.660Z,35.38
2018-09-05T10:26:35.703Z,35.05
2018-09-05T10:29:06.865Z,36.17
2018-09-05T10:34:13.821Z,36.48
2018-09-05T10:36:42.906Z,37.43
2018-09-05T10:39:12.110Z,37.73
2018-09-05T10:41:41.196Z,38.55
2018-09-05T10:44:10.279Z,35.05
2018-09-05T10:46:39.331Z,37.05
2018-09-05T10:49:08.394Z,33.94
2018-09-05T10:51:37.476Z,34.31
2018-09-05T10:54:06.561Z,37.28
2018-09-05T10:56:35.702Z,38.33
2018-09-05T10:59:05.754Z,39.23
2018-09-05T11:01:39.185Z,34.58
2018-09-05T11:06:44.266Z,37.89
2018-09-05T11:09:13.567Z,37.78
2018-09-05T11:11:42.650Z,39.83
2018-09-05T11:14:12.714Z,37.56
2018-09-05T11:16:41.833Z,40.45
2018-09-05T11:19:10.890Z,38.38
2018-09-05T11:21:39.971Z,34.44
2018-09-05T11:24:09.056Z,32.52
2018-09-05T11:26:38.109Z,36.64
2018-09-05T11:29:07.211Z,35.80
2018-09-05T11:31:36.300Z,39.00
2018-09-05T11:34:05.366Z,37.10
2018-09-05T11:36:34.444Z,38.04
2018-09-05T11:41:39.216Z,40.07
2018-09-05T11:44:08.271Z,38.55
2018-09-05T11:46:37.341Z,35.61
2018-09-05T11:49:06.419Z,32.92
2018-09-05T11:51:35.464Z,35.01
2018-09-05T11:54:04.545Z,38.27
2018-09-05T11:56:34.585Z,39.52
2018-09-05T12:01:39.470Z,39.01
2018-09-05T12:04:08.589Z,41.01
2018-09-05T12:06:38.362Z,37.34
2018-09-05T12:09:07.427Z,31.13
2018-09-05T12:11:36.490Z,36.62
2018-09-05T12:14:05.554Z,32.91
2018-09-05T12:19:10.417Z,34.83
2018-09-05T12:21:40.410Z,36.62
2018-09-05T12:24:13.518Z,36.55
2018-09-05T12:29:18.381Z,39.07
2018-09-05T12:31:48.909Z,40.45
2018-09-05T12:34:17.996Z,33.61
2018-09-05T12:36:48.005Z,36.96
2018-09-05T12:39:17.059Z,41.04
2018-09-05T12:41:46.185Z,39.42
2018-09-05T12:44:15.862Z,41.52
2018-09-05T12:46:44.938Z,41.22
2018-09-05T12:49:14.006Z,43.19
2018-09-05T12:51:43.061Z,42.27
2018-09-05T12:54:12.135Z,42.65
2018-09-05T12:56:41.631Z,35.59
2018-09-05T12:59:11.725Z,35.01
2018-09-05T13:01:40.933Z,37.27
2018-09-05T13:04:10.048Z,41.99
2018-09-05T13:06:39.156Z,41.06
2018-09-05T13:09:08.401Z,38.25
2018-09-05T13:11:40.832Z,38.05
2018-09-05T13:14:11.988Z,41.12
2018-09-05T13:16:41.087Z,40.61
2018-09-05T13:19:10.182Z,40.91
2018-09-05T13:21:39.256Z,41.43
2018-09-05T13:24:08.387Z,42.11
2018-09-05T13:26:37.520Z,43.38
2018-09-05T13:29:06.522Z,37.83
2018-09-05T13:34:11.494Z,33.18
2018-09-05T13:36:40.554Z,34.21
2018-09-05T13:39:09.676Z,35.85
2018-09-05T13:41:38.758Z,37.28
2018-09-05T13:46:43.593Z,37.06
2018-09-05T13:49:12.648Z,37.14
2018-09-05T13:51:41.780Z,36.58
2018-09-05T13:54:17.094Z,36.31
2018-09-05T13:59:22.003Z,36.50
2018-09-05T14:01:53.021Z,37.42
2018-09-05T14:04:22.084Z,37.97
2018-09-05T14:06:51.145Z,37.25
2018-09-05T14:09:20.216Z,38.13
2018-09-05T14:11:49.289Z,39.34
2018-09-05T14:14:18.353Z,38.53
2018-09-05T14:16:47.421Z,39.22
2018-09-05T14:19:16.516Z,37.27
2018-09-05T14:21:45.810Z,38.69
2018-09-05T14:24:15.824Z,37.21
2018-09-05T14:26:48.122Z,35.97
2018-09-05T14:29:17.189Z,36.10
2018-09-05T14:31:46.245Z,36.63
2018-09-05T14:34:15.586Z,36.64
2018-09-05T14:36:44.640Z,33.91
2018-09-05T14:39:14.637Z,28.72
2018-09-05T14:41:43.697Z,30.04
2018-09-05T14:44:12.849Z,30.17
2018-09-05T14:46:41.884Z,32.60
2018-09-05T14:49:10.940Z,31.93
2018-09-05T14:51:40.010Z,33.99
2018-09-05T14:54:09.292Z,35.56
2018-09-05T14:56:40.229Z,33.98
2018-09-05T14:59:09.277Z,36.69
2018-09-05T15:01:38.348Z,36.29
2018-09-05T15:04:07.458Z,36.36
2018-09-05T15:06:42.096Z,36.81
2018-09-05T15:09:11.161Z,36.93
2018-09-05T15:11:40.237Z,36.90
2018-09-05T15:14:09.380Z,33.89
2018-09-05T15:16:38.434Z,34.63
2018-09-05T15:19:07.494Z,35.18
2018-09-05T15:21:36.549Z,36.39
2018-09-05T15:26:42.398Z,36.53
2018-09-05T15:29:11.475Z,36.45
2018-09-05T15:31:40.530Z,34.01
2018-09-05T15:36:45.574Z,30.06
2018-09-05T15:39:14.671Z,29.89
2018-09-05T15:41:43.696Z,29.00
2018-09-05T15:46:48.601Z,29.82
2018-09-05T15:49:19.688Z,30.53
2018-09-05T15:51:48.744Z,28.44
2018-09-05T15:54:18.000Z,28.72
2018-09-05T15:56:47.060Z,29.09
2018-09-05T16:04:27.637Z,29.51
2018-09-05T16:06:56.729Z,28.58
2018-09-05T16:09:25.926Z,28.57
2018-09-05T16:11:54.999Z,28.24
2018-09-05T16:14:24.056Z,27.19
2018-09-05T16:16:55.765Z,27.30
2018-09-05T16:19:24.797Z,26.97
2018-09-05T16:21:53.954Z,26.68
2018-09-05T16:24:22.948Z,26.66
2018-09-05T16:26:52.015Z,26.12
2018-09-05T16:29:21.075Z,25.52
2018-09-05T16:31:51.062Z,25.15
2018-09-05T16:34:20.121Z,25.53
2018-09-05T16:36:49.290Z,25.48
2018-09-05T16:41:54.318Z,24.88
2018-09-05T16:44:23.375Z,24.97
2018-09-05T16:46:53.324Z,24.74
2018-09-05T16:51:58.144Z,24.28
2018-09-05T16:54:31.765Z,23.95
2018-09-05T16:57:00.829Z,23.68
2018-09-05T16:59:29.887Z,23.54
2018-09-05T17:01:58.931Z,23.46
2018-09-05T17:07:03.697Z,23.25
2018-09-05T17:09:33.108Z,23.03
2018-09-05T17:12:02.238Z,22.96
2018-09-05T17:14:31.287Z,22.71
2018-09-05T17:17:00.359Z,22.49
2018-09-05T17:19:29.429Z,22.25
2018-09-05T17:21:58.510Z,22.21
2018-09-05T17:24:27.638Z,22.26
2018-09-05T17:32:08.310Z,21.97
2018-09-05T17:34:37.375Z,21.84
2018-09-05T17:39:42.253Z,21.36
2018-09-05T17:42:11.323Z,21.09
2018-09-05T17:44:41.332Z,20.88
2018-09-05T17:47:12.393Z,20.69
2018-09-05T17:49:41.457Z,20.47
2018-09-05T17:54:47.207Z,20.44
2018-09-05T17:57:16.304Z,20.50
2018-09-05T18:02:22.143Z,20.43
2018-09-05T18:04:51.215Z,20.37
2018-09-05T18:09:56.015Z,20.09
2018-09-05T18:12:25.045Z,19.59
2018-09-05T18:17:29.941Z,19.25
2018-09-05T18:19:58.992Z,18.99
2018-09-05T18:22:28.053Z,18.96
2018-09-05T18:24:57.107Z,18.73
2018-09-05T18:30:01.907Z,18.67
2018-09-05T18:35:06.772Z,18.67
2018-09-05T18:37:35.834Z,18.52
2018-09-05T18:40:04.889Z,18.28
2018-09-05T18:42:33.949Z,18.11
2018-09-05T18:47:44.701Z,18.09
2018-09-05T18:50:14.058Z,17.93
2018-09-05T18:52:43.162Z,17.78
2018-09-05T18:55:12.260Z,17.76
2018-09-05T18:57:43.266Z,17.60
2018-09-05T19:00:12.371Z,17.46
2018-09-05T19:02:41.558Z,17.45
2018-09-05T19:07:47.446Z,17.52
2018-09-05T19:10:16.496Z,17.65
2018-09-05T19:12:45.568Z,17.46
2018-09-05T19:17:50.409Z,17.40
2018-09-05T19:20:19.495Z,17.34
2018-09-05T19:22:48.627Z,17.13
2018-09-05T19:25:19.633Z,17.07
2018-09-05T19:27:50.683Z,17.03
2018-09-05T19:30:19.755Z,16.92
2018-09-05T19:32:48.827Z,16.75
2018-09-05T19:35:19.833Z,16.72
2018-09-05T19:37:48.922Z,16.67
2018-09-05T19:40:18.947Z,16.63
2018-09-05T19:42:48.024Z,16.69
2018-09-05T19:45:17.085Z,16.61
2018-09-05T19:47:46.141Z,16.46
2018-09-05T19:50:15.237Z,16.43
2018-09-05T19:52:45.299Z,16.41
2018-09-05T19:55:14.361Z,16.43
2018-09-05T19:57:43.418Z,16.56
2018-09-05T20:00:12.491Z,16.55
2018-09-05T20:02:41.562Z,16.53
2018-09-05T20:05:10.631Z,16.44
2018-09-05T20:07:39.710Z,16.44
2018-09-05T20:10:08.781Z,16.38
2018-09-05T20:12:37.853Z,16.38
2018-09-05T20:15:07.882Z,16.33
2018-09-05T20:17:36.959Z,16.27
2018-09-05T20:20:06.068Z,16.17
2018-09-05T20:22:35.205Z,16.11
2018-09-05T20:25:04.273Z,16.03
2018-09-05T20:27:33.386Z,16.09
2018-09-05T20:30:02.508Z,16.13
2018-09-05T20:32:35.265Z,16.15
2018-09-05T20:35:04.343Z,16.09
2018-09-05T20:40:09.251Z,16.11
2018-09-05T20:42:40.410Z,16.15
2018-09-05T20:45:09.490Z,15.96
2018-09-05T20:47:38.643Z,15.89
2018-09-05T20:52:43.436Z,15.94
2018-09-05T20:55:12.518Z,15.93
2018-09-05T20:57:41.586Z,15.78
2018-09-05T21:00:11.638Z,15.72
2018-09-05T21:02:40.720Z,15.70
2018-09-05T21:05:10.756Z,15.82
2018-09-05T21:07:39.820Z,15.75
2018-09-05T21:10:08.929Z,15.58
2018-09-05T21:15:13.722Z,15.49
2018-09-05T21:17:42.797Z,15.42
2018-09-05T21:20:11.859Z,15.39
2018-09-05T21:22:41.854Z,15.38
2018-09-05T21:25:10.922Z,15.30
2018-09-05T21:27:40.014Z,15.25
2018-09-05T21:30:10.051Z,15.22
2018-09-05T21:32:39.134Z,15.29
2018-09-05T21:35:10.175Z,15.15
2018-09-05T21:37:39.257Z,15.09
2018-09-05T21:40:08.371Z,15.11
2018-09-05T21:42:37.418Z,15.15
2018-09-05T21:45:06.494Z,15.12
2018-09-05T21:47:35.598Z,15.06
2018-09-05T21:50:09.275Z,15.00
2018-09-05T21:52:38.370Z,15.06
2018-09-05T21:55:07.439Z,14.98
2018-09-05T21:57:36.584Z,15.02
2018-09-05T22:00:05.647Z,15.09
2018-09-05T22:02:34.713Z,15.17
2018-09-05T22:05:03.800Z,15.01
2018-09-05T22:10:08.649Z,14.90
2018-09-05T22:12:37.734Z,14.95
2018-09-05T22:15:06.857Z,14.73
2018-09-05T22:17:40.842Z,14.63
2018-09-05T22:20:10.050Z,14.65
2018-09-05T22:22:39.151Z,14.52
2018-09-05T22:25:08.215Z,14.39
2018-09-05T22:27:37.301Z,14.30
2018-09-05T22:30:06.357Z,14.26
2018-09-05T22:37:46.987Z,14.37
2018-09-05T22:40:16.045Z,14.37
2018-09-05T22:42:45.119Z,14.30
2018-09-05T22:45:32.186Z,14.30
2018-09-05T22:48:01.271Z,14.22
2018-09-05T23:01:28.286Z,14.36
2018-09-05T23:03:57.399Z,14.37
2018-09-05T23:06:26.450Z,14.23
2018-09-05T23:08:55.520Z,14.01
2018-09-05T23:11:24.598Z,13.93
2018-09-05T23:14:19.486Z,13.90
2018-09-05T23:19:35.283Z,13.82
2018-09-05T23:22:04.358Z,13.71
2018-09-05T23:29:44.862Z,13.90
2018-09-05T23:37:25.483Z,14.06
2018-09-05T23:39:54.581Z,14.03
2018-09-05T23:42:23.658Z,13.97
2018-09-05T23:44:52.742Z,13.94
2018-09-05T23:47:22.762Z,13.89
2018-09-05T23:49:51.846Z,13.83
2018-09-05T23:54:56.653Z,13.77
2018-09-05T23:57:25.724Z,13.70
2018-09-05T23:59:54.806Z,13.67
